Time;durP1;ratioP1;P1;durP2;ratioP2;P2;SDS_P1;SDS_P2;PMS_P1;PMS_P2;Temp;Humidity;BMP_temperature;BMP_pressure;BME280_temperature;BME280_humidity;BME280_pressure;Samples;Min_cycle;Max_cycle;Signal;HPM_P1;HPM_P2
2021/04/01 00:01:07;;;;;;;8.90;5.32;;;26.00;29.10;;;;;;5074601;28;20353;-70
2021/04/01 00:03:33;;;;;;;11.40;5.75;;;26.00;29.10;;;;;;5057000;28;20032;-71
2021/04/01 00:05:58;;;;;;;11.20;5.78;;;25.90;29.60;;;;;;5082002;28;20500;-72
2021/04/01 00:08:24;;;;;;;9.82;5.75;;;25.90;29.20;;;;;;5081891;28;20084;-70
2021/04/01 00:10:49;;;;;;;11.73;6.03;;;25.90;29.10;;;;;;5064147;28;20029;-70
2021/04/01 00:13:15;;;;;;;12.40;6.90;;;25.90;29.10;;;;;;5074351;28;20033;-70
2021/04/01 00:15:42;;;;;;;13.35;7.47;;;25.90;29.20;;;;;;5074317;28;20023;-70
2021/04/01 00:18:10;;;;;;;14.07;6.82;;;25.90;29.20;;;;;;5053859;28;20021;-70
2021/04/01 00:20:36;;;;;;;12.77;6.60;;;25.90;29.20;;;;;;5052403;28;20044;-70
2021/04/01 00:23:01;;;;;;;13.32;7.50;;;25.80;29.20;;;;;;5082388;28;20063;-70
2021/04/01 00:25:27;;;;;;;13.00;8.05;;;25.80;29.20;;;;;;5071661;28;20055;-74
2021/04/01 00:27:53;;;;;;;14.77;8.15;;;25.80;29.20;;;;;;5081590;28;20078;-74
2021/04/01 00:30:19;;;;;;;13.18;6.85;;;25.80;29.20;;;;;;5086787;28;20420;-74
2021/04/01 00:32:46;;;;;;;12.57;6.53;;;25.80;29.20;;;;;;5074505;28;20028;-73
2021/04/01 00:35:12;;;;;;;12.93;6.55;;;25.80;29.20;;;;;;5056003;28;20052;-73
2021/04/01 00:37:38;;;;;;;11.82;6.97;;;25.80;29.20;;;;;;5081897;28;20049;-74
2021/04/01 00:40:04;;;;;;;13.57;7.75;;;25.80;29.20;;;;;;5074015;28;20020;-74
2021/04/01 00:42:30;;;;;;;12.05;6.32;;;25.80;29.20;;;;;;5073855;28;20487;-74
2021/04/01 00:45:06;;;;;;;13.57;6.70;;;25.80;29.20;;;;;;5054110;28;20142;-74
2021/04/01 00:47:38;;;;;;;11.02;7.03;;;25.70;29.20;;;;;;5049861;28;20039;-74
2021/04/01 00:50:06;;;;;;;13.73;6.88;;;25.70;29.20;;;;;;5074206;28;20067;-74
2021/04/01 00:52:31;;;;;;;13.07;6.85;;;25.70;29.20;;;;;;5039617;28;20043;-74
2021/04/01 00:54:57;;;;;;;12.63;6.95;;;25.70;29.30;;;;;;5081628;28;20420;-74
2021/04/01 00:57:22;;;;;;;11.43;6.45;;;25.70;29.80;;;;;;5081111;28;20103;-71
2021/04/01 00:59:48;;;;;;;14.43;7.07;;;25.70;29.30;;;;;;5064536;28;20018;-72
2021/04/01 01:02:14;;;;;;;12.90;6.18;;;25.70;29.30;;;;;;5088636;28;20090;-72
2021/04/01 01:04:42;;;;;;;14.45;7.28;;;25.70;29.30;;;;;;5081705;28;20025;-71
2021/04/01 01:07:08;;;;;;;14.38;7.13;;;25.70;29.20;;;;;;5055916;28;20035;-71
2021/04/01 01:09:33;;;;;;;12.90;6.22;;;25.70;29.20;;;;;;5073193;28;20024;-71
2021/04/01 01:11:59;;;;;;;12.55;7.18;;;25.70;29.20;;;;;;5054801;28;20040;-70
2021/04/01 01:14:24;;;;;;;12.30;6.60;;;25.70;29.20;;;;;;5054575;28;20063;-71
2021/04/01 01:16:50;;;;;;;9.18;6.20;;;25.70;29.20;;;;;;5080918;28;20411;-71
2021/04/01 01:19:17;;;;;;;14.60;7.20;;;25.70;29.70;;;;;;5073524;28;20060;-74
2021/04/01 01:21:43;;;;;;;9.52;5.97;;;25.70;29.20;;;;;;5055586;28;20031;-74
2021/04/01 01:24:13;;;;;;;12.10;7.05;;;25.70;29.20;;;;;;5090568;28;20099;-74
2021/04/01 01:26:40;;;;;;;12.90;7.47;;;25.70;29.20;;;;;;5079855;28;20511;-74
2021/04/01 01:29:06;;;;;;;13.98;8.20;;;25.70;29.20;;;;;;5063994;28;20028;-71
2021/04/01 01:31:32;;;;;;;11.40;6.63;;;25.70;29.20;;;;;;5063502;28;20056;-71
2021/04/01 01:33:57;;;;;;;10.68;7.22;;;25.70;29.20;;;;;;5055184;28;20033;-73
2021/04/01 01:36:23;;;;;;;12.63;7.15;;;25.60;29.10;;;;;;5073299;28;20032;-74
2021/04/01 01:38:58;;;;;;;12.88;7.30;;;25.70;29.20;;;;;;5072490;28;20032;-74
2021/04/01 01:41:23;;;;;;;13.00;7.53;;;25.60;29.10;;;;;;5052132;28;20068;-74
2021/04/01 01:43:49;;;;;;;12.35;6.97;;;25.60;29.70;;;;;;5080050;28;20048;-74
2021/04/01 01:46:14;;;;;;;14.77;7.38;;;25.60;29.10;;;;;;5063534;28;20044;-75
2021/04/01 01:48:40;;;;;;;17.05;8.73;;;25.60;29.10;;;;;;5072951;28;20032;-74
2021/04/01 01:51:05;;;;;;;16.35;8.77;;;25.60;29.10;;;;;;5073855;28;20041;-74
2021/04/01 01:53:31;;;;;;;15.98;8.55;;;25.60;29.10;;;;;;5073756;28;20500;-71
2021/04/01 01:55:57;;;;;;;16.27;8.38;;;25.60;29.20;;;;;;5055200;28;20056;-71
2021/04/01 01:58:23;;;;;;;17.55;9.40;;;25.60;29.20;;;;;;5073501;28;20016;-71
2021/04/01 02:00:51;;;;;;;17.55;9.23;;;25.60;29.20;;;;;;5089450;28;20492;-70
2021/04/01 02:03:17;;;;;;;14.27;8.32;;;25.60;29.20;;;;;;5057470;28;20048;-69
2021/04/01 02:05:42;;;;;;;13.38;7.40;;;25.60;29.20;;;;;;5072934;28;20121;-69
2021/04/01 02:08:09;;;;;;;16.77;7.80;;;25.50;29.20;;;;;;5079870;28;20024;-69
2021/04/01 02:10:37;;;;;;;15.20;8.43;;;25.50;29.20;;;;;;5054444;28;21292;-69
2021/04/01 02:13:03;;;;;;;14.55;8.05;;;25.50;29.20;;;;;;5072269;28;20032;-69
2021/04/01 02:15:30;;;;;;;14.63;8.82;;;25.50;29.20;;;;;;5079674;28;20029;-69
2021/04/01 02:18:19;;;;;;;16.08;9.05;;;25.50;29.20;;;;;;5054532;28;20028;-70
2021/04/01 02:20:47;;;;;;;16.42;8.45;;;25.50;29.20;;;;;;5072083;28;20426;-70
2021/04/01 02:23:13;;;;;;;15.13;8.75;;;25.50;29.20;;;;;;5080996;28;20043;-70
2021/04/01 02:25:39;;;;;;;13.73;7.55;;;25.50;29.20;;;;;;5054380;28;20064;-73
2021/04/01 02:28:05;;;;;;;16.80;8.00;;;25.50;29.30;;;;;;5063136;28;20032;-74
2021/04/01 02:30:32;;;;;;;17.52;8.93;;;25.40;29.20;;;;;;5071533;28;20052;-74
2021/04/01 02:32:57;;;;;;;16.25;8.90;;;25.40;29.20;;;;;;5072005;28;20055;-74
2021/04/01 02:35:23;;;;;;;13.82;7.57;;;25.40;29.30;;;;;;5053984;28;20045;-74
2021/04/01 02:37:49;;;;;;;16.13;9.02;;;25.40;29.30;;;;;;5079174;28;20514;-70
2021/04/01 02:40:18;;;;;;;17.75;8.40;;;25.40;29.30;;;;;;5072021;28;20399;-74
2021/04/01 02:42:43;;;;;;;14.95;8.15;;;25.40;29.30;;;;;;5072539;28;20021;-74
2021/04/01 02:45:15;;;;;;;14.00;8.85;;;25.30;29.20;;;;;;5072192;28;20472;-74
2021/04/01 02:47:46;;;;;;;14.25;7.78;;;25.30;29.30;;;;;;5071617;28;20483;-74
2021/04/01 02:50:12;;;;;;;13.93;8.05;;;25.30;29.30;;;;;;5079731;28;20025;-74
2021/04/01 02:52:38;;;;;;;13.25;8.07;;;25.30;29.30;;;;;;5071638;28;20609;-74
2021/04/01 02:55:05;;;;;;;24.88;8.43;;;25.30;29.30;;;;;;5079173;28;20025;-70
2021/04/01 02:57:34;;;;;;;15.45;8.02;;;25.30;29.30;;;;;;5059542;28;20039;-70
2021/04/01 03:00:04;;;;;;;13.85;8.55;;;25.30;29.40;;;;;;5053824;28;20036;-70
2021/04/01 03:02:30;;;;;;;14.40;8.27;;;25.30;29.40;;;;;;5072060;28;20025;-70
2021/04/01 03:04:56;;;;;;;13.20;7.50;;;25.30;29.40;;;;;;5070732;28;20038;-70
2021/04/01 03:07:21;;;;;;;12.52;7.80;;;25.30;29.40;;;;;;5048989;28;20040;-70
2021/04/01 03:09:47;;;;;;;13.30;7.30;;;25.20;29.40;;;;;;5078514;28;20115;-70
2021/04/01 03:12:12;;;;;;;17.42;9.40;;;25.20;29.40;;;;;;5053594;28;20486;-70
2021/04/01 03:14:38;;;;;;;19.05;9.60;;;25.20;29.40;;;;;;5078651;28;20132;-70
2021/04/01 03:17:04;;;;;;;14.35;9.25;;;25.20;29.40;;;;;;5078379;28;20093;-70
2021/04/01 03:19:29;;;;;;;19.70;9.27;;;25.20;29.40;;;;;;5071645;28;20032;-74
2021/04/01 03:21:55;;;;;;;15.15;9.02;;;25.20;29.40;;;;;;5078747;28;20032;-73
2021/04/01 03:24:20;;;;;;;19.70;8.40;;;25.20;29.40;;;;;;5081125;28;20496;-74
2021/04/01 03:26:46;;;;;;;15.82;9.00;;;25.20;29.40;;;;;;5070492;28;20024;-73
2021/04/01 03:29:12;;;;;;;16.88;9.27;;;25.20;29.50;;;;;;5071085;28;20077;-74
2021/04/01 03:31:37;;;;;;;15.75;9.10;;;25.10;29.40;;;;;;5079529;28;20037;-74
2021/04/01 03:34:03;;;;;;;13.02;8.65;;;25.10;29.40;;;;;;5045902;28;20180;-73
2021/04/01 03:36:28;;;;;;;18.25;8.65;;;25.10;29.40;;;;;;5049287;28;20044;-73
2021/04/01 03:38:55;;;;;;;13.00;8.25;;;25.10;29.50;;;;;;5068538;28;20029;-74
2021/04/01 03:41:20;;;;;;;13.98;8.23;;;25.10;29.50;;;;;;5071545;28;20096;-71
2021/04/01 03:43:46;;;;;;;16.83;8.63;;;25.10;29.50;;;;;;5079623;28;20163;-73
2021/04/01 03:46:13;;;;;;;18.67;9.35;;;25.00;29.50;;;;;;5061665;28;20496;-74
2021/04/01 03:48:39;;;;;;;14.52;8.05;;;25.00;29.50;;;;;;5070563;28;20035;-70
2021/04/01 03:51:05;;;;;;;19.95;9.55;;;25.00;29.50;;;;;;5053131;28;20384;-70
2021/04/01 03:53:31;;;;;;;18.10;10.05;;;25.00;29.60;;;;;;5077995;28;20040;-70
2021/04/01 03:56:03;;;;;;;17.67;9.82;;;25.00;29.60;;;;;;5053552;28;20032;-70
2021/04/01 04:16:00;;;;;;;7.78;3.45;;;24.90;29.70;;;;;;5076566;28;20031;-73
2021/04/01 04:18:32;;;;;;;12.63;4.47;;;24.90;29.80;;;;;;5070462;28;20033;-74
2021/04/01 04:20:57;;;;;;;11.98;4.05;;;24.90;29.80;;;;;;5074278;28;20044;-74
2021/04/01 04:23:24;;;;;;;7.43;3.05;;;24.90;29.80;;;;;;5074128;28;20303;-74
2021/04/01 04:25:50;;;;;;;9.82;4.07;;;24.90;29.80;;;;;;5074654;28;20442;-75
2021/04/01 04:28:31;;;;;;;5.38;2.78;;;24.90;29.80;;;;;;5081693;28;20064;-74
2021/04/01 04:30:56;;;;;;;5.40;2.80;;;24.90;29.80;;;;;;5074469;28;20040;-74
2021/04/01 04:33:22;;;;;;;9.23;2.53;;;24.90;29.80;;;;;;5054588;28;20025;-74
2021/04/01 04:35:47;;;;;;;6.65;2.38;;;24.90;29.80;;;;;;5052723;28;20492;-73
2021/04/01 04:38:13;;;;;;;10.65;3.95;;;24.90;29.80;;;;;;5072892;28;20074;-73
2021/04/01 04:40:39;;;;;;;6.10;3.17;;;24.80;29.70;;;;;;5074152;28;20036;-74
2021/04/01 04:43:04;;;;;;;6.13;2.97;;;24.90;29.80;;;;;;5074474;28;20082;-74
2021/04/01 04:45:30;;;;;;;6.55;2.70;;;24.80;29.70;;;;;;5055879;28;20074;-74
2021/04/01 04:47:55;;;;;;;5.90;3.20;;;24.90;29.70;;;;;;5070287;28;20036;-74
2021/04/01 04:50:21;;;;;;;2.40;1.23;;;24.80;29.70;;;;;;5055689;28;20049;-74
2021/04/01 04:52:47;;;;;;;5.13;2.85;;;24.80;29.70;;;;;;5055332;28;20086;-74
2021/04/01 04:55:13;;;;;;;4.40;1.77;;;24.80;30.20;;;;;;5064909;28;20052;-74
2021/04/01 04:57:48;;;;;;;9.07;3.00;;;24.80;29.80;;;;;;5055646;28;20086;-74
2021/04/01 05:05:28;;;;;;;13.63;2.08;;;24.80;29.80;;;;;;5077795;28;20035;-74
2021/04/01 05:07:53;;;;;;;6.53;2.45;;;24.80;29.80;;;;;;5055448;28;20036;-74
2021/04/01 05:10:19;;;;;;;4.75;2.13;;;24.80;29.90;;;;;;5072491;28;20029;-74
2021/04/01 05:12:52;;;;;;;16.60;2.35;;;24.80;29.90;;;;;;5079453;28;20043;-74
2021/04/01 05:15:20;;;;;;;7.43;2.08;;;24.70;29.90;;;;;;5056941;28;20069;-74
2021/04/01 05:17:48;;;;;;;3.85;1.60;;;24.70;29.90;;;;;;5073118;28;20396;-74
2021/04/01 05:20:15;;;;;;;7.15;2.38;;;24.70;29.90;;;;;;5055184;28;20040;-74
2021/04/01 05:22:53;;;;;;;6.88;2.80;;;24.70;30.00;;;;;;5073314;28;20028;-74
2021/04/01 05:25:21;;;;;;;10.02;3.15;;;24.70;30.00;;;;;;5055592;28;20508;-71
2021/04/01 05:28:08;;;;;;;6.07;2.45;;;24.70;30.00;;;;;;5080179;28;20040;-71
2021/04/01 05:30:33;;;;;;;9.25;3.30;;;24.70;30.00;;;;;;5054214;28;20044;-71
2021/04/01 05:32:59;;;;;;;13.18;4.55;;;24.70;30.00;;;;;;5072755;28;20558;-71
2021/04/01 05:35:25;;;;;;;11.52;4.32;;;24.60;30.00;;;;;;5080570;28;20036;-71
2021/04/01 05:37:51;;;;;;;9.25;1.73;;;24.60;30.00;;;;;;5054498;28;20028;-71
2021/04/01 05:40:16;;;;;;;13.02;3.33;;;24.60;30.00;;;;;;5073325;28;20516;-74
2021/04/01 05:42:45;;;;;;;8.15;2.90;;;24.70;30.00;;;;;;5073014;28;20028;-74
2021/04/01 05:45:21;;;;;;;8.25;2.30;;;24.60;30.00;;;;;;5055899;28;20024;-74
2021/04/01 05:47:52;;;;;;;5.80;1.90;;;24.60;30.00;;;;;;5072193;28;20100;-71
2021/04/01 05:50:43;;;;;;;7.00;3.50;;;24.60;30.10;;;;;;5076431;28;20032;-71
2021/04/01 06:01:58;;;;;;;6.43;3.33;;;24.60;30.20;;;;;;5065418;28;20078;-70
2021/04/01 06:07:03;;;;;;;;;;;24.60;30.20;;;;;;5077983;28;20108;-73
2021/04/01 06:09:34;;;;;;;1.20;0.80;;;24.60;30.20;;;;;;5078719;28;20277;-73
2021/04/01 06:12:00;;;;;;;8.80;3.50;;;24.60;30.30;;;;;;5076815;28;20388;-74
2021/04/01 06:14:38;;;;;;;14.05;4.43;;;24.60;30.30;;;;;;5057673;28;20024;-74
2021/04/01 06:17:05;;;;;;;7.70;2.97;;;24.60;30.40;;;;;;5071965;28;20039;-74
2021/04/01 06:19:36;;;;;;;7.20;2.83;;;24.50;30.30;;;;;;5063426;28;20048;-74
2021/04/01 06:22:04;;;;;;;4.53;1.30;;;24.50;30.40;;;;;;5078491;28;20545;-74
2021/04/01 06:24:30;;;;;;;5.30;2.08;;;24.50;30.40;;;;;;5079160;28;20032;-74
2021/04/01 06:27:16;;;;;;;5.65;3.15;;;24.50;30.40;;;;;;5078978;28;20017;-74
2021/04/01 06:30:35;;;;;;;5.13;2.42;;;24.50;30.40;;;;;;5063331;28;20376;-74
2021/04/01 06:32:31;;;;;;;7.68;3.17;;;24.50;30.50;;;;;;5061242;28;20043;-74
2021/04/01 06:35:39;;;;;;;2.53;1.38;;;24.50;30.50;;;;;;5072105;28;20021;-74
2021/04/01 06:40:39;;;;;;;7.53;2.53;;;24.50;30.60;;;;;;5079126;28;20025;-74
2021/04/01 06:43:21;;;;;;;6.38;2.33;;;24.40;30.70;;;;;;5066718;28;20035;-74
2021/04/01 06:45:57;;;;;;;10.10;2.75;;;24.40;30.70;;;;;;5050420;28;20404;-75
2021/04/01 06:48:27;;;;;;;4.72;2.53;;;24.40;30.80;;;;;;5056264;28;20469;-74
2021/04/01 06:51:04;;;;;;;4.88;2.25;;;24.40;30.80;;;;;;5068428;28;20432;-75
2021/04/01 06:53:38;;;;;;;6.05;2.20;;;24.50;30.90;;;;;;5081179;28;20071;-74
2021/04/01 07:01:51;;;;;;;11.95;3.80;;;24.40;30.90;;;;;;5054695;28;20035;-74
2021/04/01 07:04:16;;;;;;;8.40;2.30;;;24.40;31.00;;;;;;5058436;28;20043;-71
2021/04/01 07:06:44;;;;;;;4.68;1.85;;;24.40;31.00;;;;;;5077634;28;20380;-71
2021/04/01 07:12:23;;;;;;;11.52;3.72;;;24.40;31.00;;;;;;4977145;28;20043;-71
2021/04/01 07:14:50;;;;;;;6.95;2.97;;;24.50;31.10;;;;;;4983751;28;20034;-71
2021/04/01 07:17:39;;;;;;;3.90;1.40;;;24.50;31.10;;;;;;4990153;28;20042;-71
2021/04/01 07:20:27;;;;;;;2.95;1.98;;;24.50;31.10;;;;;;4984246;28;20050;-70
2021/04/01 07:44:52;;;;;;;7.65;3.28;;;24.80;30.70;;;;;;4997279;28;20416;-74
2021/04/01 07:47:22;;;;;;;11.40;1.17;;;24.90;30.60;;;;;;5004429;28;20089;-73
2021/04/01 07:49:52;;;;;;;12.50;4.63;;;24.90;30.40;;;;;;5053950;28;20020;-76
2021/04/01 07:52:20;;;;;;;7.80;3.92;;;25.00;30.40;;;;;;5047620;28;20433;-75
2021/04/01 08:00:14;;;;;;;2.20;1.70;;;25.20;30.20;;;;;;5074466;28;20021;-73
2021/04/01 08:05:28;;;;;;;11.25;4.90;;;25.30;30.20;;;;;;5061864;28;20090;-69
2021/04/01 08:07:57;;;;;;;9.73;5.15;;;25.40;30.20;;;;;;5070311;28;20029;-69
2021/04/01 08:10:39;;;;;;;18.98;9.27;;;25.40;30.10;;;;;;5061091;28;20036;-71
2021/04/01 08:13:06;;;;;;;11.93;7.07;;;25.50;30.10;;;;;;5057720;28;20111;-71
2021/04/01 08:15:43;;;;;;;17.42;8.45;;;25.50;30.00;;;;;;5062509;28;20024;-71
2021/04/01 08:18:24;;;;;;;12.13;6.97;;;25.60;30.00;;;;;;5058846;28;20029;-71
2021/04/01 08:21:01;;;;;;;23.45;10.93;;;25.70;30.00;;;;;;5054268;28;20056;-70
2021/04/01 08:23:30;;;;;;;19.42;10.32;;;25.70;30.00;;;;;;5068938;28;20033;-70
2021/04/01 08:28:44;;;;;;;12.95;5.63;;;25.80;30.40;;;;;;5079999;28;20032;-68
2021/04/01 08:33:56;;;;;;;20.85;8.55;;;25.90;29.80;;;;;;5070063;28;20502;-69
2021/04/01 08:36:23;;;;;;;7.05;3.75;;;25.90;29.80;;;;;;5080951;28;20542;-70
2021/04/01 08:42:47;;;;;;;12.85;5.65;;;26.00;29.80;;;;;;5067653;28;20031;-75
2021/04/01 08:45:30;;;;;;;9.85;4.93;;;26.00;30.20;;;;;;5036062;28;20036;-76
2021/04/01 08:48:16;;;;;;;7.43;3.95;;;26.00;29.80;;;;;;5044307;28;20025;-76
2021/04/01 08:51:07;;;;;;;11.70;5.03;;;26.00;29.80;;;;;;5056722;28;20064;-76
2021/04/01 08:54:01;;;;;;;11.68;4.22;;;26.10;29.70;;;;;;5052199;28;20020;-76
2021/04/01 08:56:27;;;;;;;6.55;3.55;;;26.10;29.70;;;;;;5052088;28;20017;-76
2021/04/01 08:59:15;;;;;;;11.57;3.72;;;26.10;29.70;;;;;;5070265;28;20093;-76
2021/04/01 09:01:41;;;;;;;16.13;6.72;;;26.10;29.70;;;;;;5069855;28;20028;-76
2021/04/01 09:04:07;;;;;;;3.85;2.80;;;26.20;29.70;;;;;;5065173;28;20074;-76
2021/04/01 09:06:38;;;;;;;6.47;3.17;;;26.10;29.60;;;;;;5074900;28;20032;-76
2021/04/01 09:09:09;;;;;;;16.67;6.80;;;26.20;29.60;;;;;;5047082;28;20112;-76
2021/04/01 09:11:55;;;;;;;13.43;5.28;;;26.20;29.60;;;;;;5055936;28;20032;-76
2021/04/01 09:14:48;;;;;;;2.67;2.15;;;26.20;29.60;;;;;;5054054;28;20127;-76
2021/04/01 09:17:16;;;;;;;7.55;2.55;;;26.20;29.50;;;;;;5056404;28;20033;-76
2021/04/01 09:19:51;;;;;;;11.68;4.30;;;26.30;29.50;;;;;;5056143;28;20028;-76
2021/04/01 09:22:29;;;;;;;8.47;3.90;;;26.30;29.50;;;;;;5063954;28;20037;-75
2021/04/01 09:24:57;;;;;;;3.97;2.47;;;26.30;29.50;;;;;;5065354;28;20031;-76
2021/04/01 09:27:23;;;;;;;2.22;1.05;;;26.30;29.50;;;;;;5051321;28;20040;-75
2021/04/01 09:29:48;;;;;;;2.75;1.55;;;26.40;29.50;;;;;;5076948;28;20029;-76
2021/04/01 09:32:14;;;;;;;6.85;4.03;;;26.40;29.50;;;;;;5066309;28;20038;-76
2021/04/01 09:34:41;;;;;;;2.92;2.10;;;26.40;29.40;;;;;;5080783;28;20027;-76
2021/04/01 09:37:14;;;;;;;10.00;3.38;;;26.40;29.40;;;;;;5055588;28;20531;-76
2021/04/01 09:39:40;;;;;;;8.88;3.80;;;26.50;29.40;;;;;;5076986;28;20077;-76
2021/04/01 09:42:08;;;;;;;3.10;2.35;;;26.50;29.40;;;;;;5035450;28;20072;-76
2021/04/01 09:44:34;;;;;;;2.03;1.63;;;26.50;29.30;;;;;;5078753;28;20060;-76
2021/04/01 09:47:06;;;;;;;2.83;1.67;;;26.50;29.30;;;;;;5079645;28;20082;-76
2021/04/01 09:49:36;;;;;;;6.63;2.47;;;26.60;29.30;;;;;;5071613;28;20043;-76
2021/04/01 09:52:02;;;;;;;1.80;1.38;;;26.60;29.30;;;;;;5082474;28;20079;-70
2021/04/01 09:54:29;;;;;;;5.43;1.30;;;26.60;29.20;;;;;;5066872;28;20021;-70
2021/04/01 09:56:56;;;;;;;3.08;1.77;;;26.60;29.70;;;;;;5081115;28;20036;-70
2021/04/01 09:59:41;;;;;;;4.88;2.50;;;26.60;29.20;;;;;;5076537;28;20036;-70
2021/04/01 10:02:08;;;;;;;1.63;0.93;;;26.70;29.20;;;;;;5052476;28;20107;-70
2021/04/01 10:04:43;;;;;;;6.32;2.58;;;26.70;29.20;;;;;;5066907;28;20042;-70
2021/04/01 10:07:15;;;;;;;20.87;4.93;;;26.80;29.20;;;;;;5072931;28;20031;-69
2021/04/01 10:09:51;;;;;;;8.48;2.80;;;26.80;29.10;;;;;;5080808;28;20024;-69
2021/04/01 10:12:20;;;;;;;;;;;26.80;29.00;;;;;;5072469;28;20491;-75
2021/04/01 10:14:52;;;;;;;3.78;1.58;;;26.90;29.00;;;;;;5081218;28;19931;-76
2021/04/01 10:17:21;;;;;;;9.10;3.33;;;26.90;29.00;;;;;;5052777;28;20487;-74
2021/04/01 10:19:57;;;;;;;1.48;1.38;;;26.90;28.90;;;;;;5054490;28;20028;-77
2021/04/01 10:22:29;;;;;;;;;;;27.00;28.90;;;;;;5067576;28;20631;-76
2021/04/01 10:25:27;;;;;;;4.78;2.20;;;27.00;28.90;;;;;;5053457;28;19920;-76
2021/04/01 10:28:07;;;;;;;1.02;0.80;;;27.10;28.80;;;;;;5055585;28;20054;-76
2021/04/01 10:30:33;;;;;;;0.80;0.80;;;27.10;28.80;;;;;;5036111;28;20044;-76
2021/04/01 10:33:10;;;;;;;3.90;2.03;;;27.10;28.70;;;;;;5037828;28;20508;-70
2021/04/01 10:35:36;;;;;;;2.45;1.08;;;27.20;28.70;;;;;;5039081;28;20460;-70
2021/04/01 10:38:03;;;;;;;6.35;1.90;;;27.30;28.70;;;;;;5050714;28;20103;-70
2021/04/01 10:40:30;;;;;;;1.42;1.33;;;27.30;28.60;;;;;;5068251;28;20100;-70
2021/04/01 10:43:03;;;;;;;6.47;2.28;;;27.40;28.60;;;;;;5057065;28;20033;-71
2021/04/01 10:45:33;;;;;;;6.15;2.88;;;27.40;28.60;;;;;;5070134;28;20012;-71
2021/04/01 10:48:25;;;;;;;2.42;2.00;;;27.40;28.50;;;;;;5047333;28;20480;-70
2021/04/01 10:50:54;;;;;;;4.53;1.95;;;27.50;28.50;;;;;;5067879;28;20373;-70
2021/04/01 10:53:23;;;;;;;2.25;0.85;;;27.60;28.50;;;;;;5037404;28;20044;-71
2021/04/01 10:55:49;;;;;;;2.55;1.40;;;27.60;28.40;;;;;;5072179;28;20036;-70
2021/04/01 10:58:15;;;;;;;1.65;1.48;;;27.70;28.40;;;;;;5048731;28;20071;-70
2021/04/01 11:00:51;;;;;;;16.45;1.48;;;27.70;28.80;;;;;;5069905;28;21054;-71
2021/04/01 11:03:16;;;;;;;5.95;2.58;;;27.80;28.40;;;;;;5050346;28;20056;-70
2021/04/01 11:05:42;;;;;;;1.00;0.90;;;27.80;28.30;;;;;;5058767;28;20121;-70
2021/04/01 11:08:09;;;;;;;4.22;2.00;;;27.80;28.20;;;;;;5057390;28;20045;-71
2021/04/01 11:10:35;;;;;;;1.40;0.82;;;27.90;28.30;;;;;;5083921;28;20032;-70
2021/04/01 11:13:05;;;;;;;0.75;0.63;;;27.90;28.10;;;;;;5050746;28;20105;-71
2021/04/01 11:15:32;;;;;;;8.73;2.60;;;28.00;28.10;;;;;;5062406;28;20369;-71
2021/04/01 11:18:01;;;;;;;5.35;2.20;;;28.10;28.10;;;;;;5042248;28;20033;-71
2021/04/01 11:20:36;;;;;;;7.13;2.47;;;28.20;28.10;;;;;;5044927;28;20408;-73
2021/04/01 11:23:11;;;;;;;8.57;3.38;;;28.30;28.00;;;;;;5068798;28;20058;-72
2021/04/01 11:25:38;;;;;;;5.68;1.95;;;28.30;27.90;;;;;;5068711;28;20024;-72
2021/04/01 11:28:04;;;;;;;8.43;2.72;;;28.30;27.80;;;;;;5044050;28;20142;-71
2021/04/01 11:30:49;;;;;;;3.33;1.55;;;28.40;27.80;;;;;;5036499;28;20047;-71
2021/04/01 11:33:18;;;;;;;4.28;1.60;;;28.50;27.80;;;;;;5064543;28;20098;-71
2021/04/01 11:35:46;;;;;;;10.48;3.03;;;28.50;27.70;;;;;;5085991;28;20017;-76
2021/04/01 11:38:24;;;;;;;13.48;3.38;;;28.60;27.70;;;;;;5055278;28;20123;-76
2021/04/01 11:41:02;;;;;;;1.80;1.15;;;28.70;27.60;;;;;;5069400;28;20104;-76
2021/04/01 11:43:29;;;;;;;4.88;1.77;;;28.70;27.50;;;;;;5069860;28;20044;-74
2021/04/01 11:45:55;;;;;;;0.57;0.57;;;28.80;27.60;;;;;;5047628;28;20037;-77
2021/04/01 11:48:21;;;;;;;3.20;1.73;;;28.80;27.60;;;;;;5050783;28;20044;-69
2021/04/01 11:50:52;;;;;;;4.88;1.25;;;28.80;27.50;;;;;;5055437;28;20040;-71
2021/04/01 11:53:18;;;;;;;3.97;2.38;;;28.80;27.50;;;;;;5079431;28;20103;-71
2021/04/01 11:55:51;;;;;;;3.42;2.03;;;28.90;27.50;;;;;;5072398;28;20439;-71
2021/04/01 11:58:34;;;;;;;4.00;1.48;;;28.90;27.40;;;;;;5084731;28;20047;-71
2021/04/01 12:01:31;;;;;;;5.30;1.92;;;28.90;27.40;;;;;;5071674;28;20024;-71
2021/04/01 12:06:27;;;;;;;4.43;1.83;;;28.90;27.40;;;;;;5018942;28;20042;-71
2021/04/01 12:08:56;;;;;;;6.40;2.85;;;29.00;27.40;;;;;;5029317;28;20068;-71
2021/04/01 12:11:22;;;;;;;2.10;1.20;;;29.00;27.40;;;;;;5026103;28;20536;-69
2021/04/01 12:13:48;;;;;;;13.90;5.15;;;29.00;27.30;;;;;;5014045;28;20033;-71
2021/04/01 12:16:16;;;;;;;3.22;1.77;;;29.10;27.40;;;;;;5029677;28;20537;-71
2021/04/01 12:18:42;;;;;;;2.70;1.60;;;29.10;27.40;;;;;;5029980;28;20034;-71
2021/04/01 12:21:08;;;;;;;4.97;2.10;;;29.20;27.30;;;;;;5013927;28;20583;-71
2021/04/01 12:23:44;;;;;;;5.95;2.70;;;29.20;27.30;;;;;;5029871;28;20042;-70
2021/04/01 12:26:10;;;;;;;2.45;0.95;;;29.30;27.80;;;;;;5029956;28;20440;-71
2021/04/01 12:28:42;;;;;;;22.15;4.63;;;29.40;27.30;;;;;;5013815;28;20042;-77
2021/04/01 12:31:12;;;;;;;2.28;1.65;;;29.40;27.20;;;;;;5013559;28;20057;-77
2021/04/01 12:33:55;;;;;;;3.30;1.65;;;29.50;27.20;;;;;;4996817;28;20034;-77
2021/04/01 12:36:30;;;;;;;5.30;2.17;;;29.50;27.10;;;;;;5028949;28;20538;-77
2021/04/01 12:38:59;;;;;;;4.07;1.70;;;29.50;27.00;;;;;;5013601;28;20065;-77
2021/04/01 12:41:25;;;;;;;3.35;1.33;;;29.60;27.00;;;;;;5049144;28;20071;-77
2021/04/01 12:43:50;;;;;;;1.52;0.82;;;29.60;27.00;;;;;;5075647;28;20062;-77
2021/04/01 12:46:16;;;;;;;2.65;1.35;;;29.60;27.00;;;;;;5077562;28;20024;-77
2021/04/01 12:48:59;;;;;;;5.97;2.15;;;29.60;27.00;;;;;;5076729;28;20052;-77
2021/04/01 12:51:48;;;;;;;2.90;1.55;;;29.70;27.00;;;;;;5078988;28;20024;-77
2021/04/01 12:54:18;;;;;;;2.30;1.15;;;29.80;26.90;;;;;;5077292;28;20157;-77
2021/04/01 12:56:48;;;;;;;6.55;1.90;;;29.80;26.90;;;;;;5077958;28;20020;-77
2021/04/01 12:59:18;;;;;;;2.17;1.15;;;29.80;26.80;;;;;;5077743;28;20024;-77
2021/04/01 13:01:52;;;;;;;3.55;1.42;;;29.80;26.80;;;;;;5077027;28;20024;-71
2021/04/01 13:04:19;;;;;;;3.60;0.63;;;29.90;26.90;;;;;;5095016;28;20411;-71
2021/04/01 13:12:15;;;;;;;1.65;1.23;;;29.90;26.80;;;;;;5012999;28;20034;-71
2021/04/01 13:14:41;;;;;;;2.17;0.88;;;29.90;26.80;;;;;;5012716;28;20045;-71
2021/04/01 13:17:07;;;;;;;2.30;1.02;;;29.90;26.90;;;;;;4996680;28;20090;-76
2021/04/01 13:19:33;;;;;;;1.00;0.75;;;29.90;26.90;;;;;;5012415;28;20494;-77
2021/04/01 13:27:02;;;;;;;5.03;1.40;;;29.90;26.90;;;;;;4997554;28;20026;-76
2021/04/01 13:29:31;;;;;;;2.20;1.52;;;29.90;27.00;;;;;;4980036;28;20478;-76
2021/04/01 13:32:06;;;;;;;13.00;1.10;;;29.90;27.00;;;;;;5012555;28;20074;-77
2021/04/01 13:34:42;;;;;;;1.08;0.98;;;29.90;27.00;;;;;;5012502;28;20069;-77
2021/04/01 13:37:13;;;;;;;4.38;0.73;;;29.90;27.60;;;;;;5012448;28;20049;-77
2021/04/01 13:39:50;;;;;;;2.20;1.20;;;29.90;27.10;;;;;;4996890;28;20029;-77
2021/04/01 13:42:28;;;;;;;6.70;2.55;;;29.90;27.10;;;;;;5012286;28;20080;-76
2021/04/01 13:45:27;;;;;;;1.60;0.63;;;29.80;27.10;;;;;;4998722;28;20526;-71
2021/04/01 13:47:49;;;;;;;4.60;1.55;;;29.80;27.20;;;;;;5000918;28;20444;-76
2021/04/01 13:50:18;;;;;;;0.80;0.50;;;29.70;27.30;;;;;;5033867;28;20040;-71
2021/04/01 13:52:55;;;;;;;2.60;0.90;;;29.70;27.30;;;;;;5053123;28;20049;-71
2021/04/01 13:55:33;;;;;;;3.42;1.70;;;29.60;27.30;;;;;;5053991;28;20029;-71
2021/04/01 14:03:43;;;;;;;4.97;1.63;;;29.60;27.50;;;;;;4973132;28;20039;-71
2021/04/01 14:09:58;;;;;;;3.00;1.00;;;29.50;27.70;;;;;;4928964;29;20046;-76
2021/04/01 14:12:24;;;;;;;3.58;1.38;;;29.50;27.70;;;;;;4933895;29;20554;-77
2021/04/01 14:14:50;;;;;;;1.25;1.02;;;29.50;27.70;;;;;;4934293;29;20056;-76
2021/04/01 14:17:15;;;;;;;1.52;0.98;;;29.40;27.80;;;;;;4949981;29;20039;-76
2021/04/01 14:19:41;;;;;;;3.40;1.45;;;29.40;27.80;;;;;;4934250;29;20042;-76
2021/04/01 14:22:07;;;;;;;1.27;1.10;;;29.40;27.80;;;;;;4934026;29;20039;-77
2021/04/01 14:29:35;;;;;;;3.50;1.15;;;29.30;28.00;;;;;;4933863;29;20047;-76
2021/04/01 14:32:01;;;;;;;3.15;1.67;;;29.30;28.00;;;;;;4949823;29;20043;-77
2021/04/01 14:34:27;;;;;;;1.63;0.90;;;29.30;28.10;;;;;;4949310;29;20551;-76
2021/04/01 14:36:55;;;;;;;2.55;1.80;;;29.20;28.10;;;;;;4955543;28;20028;-77
2021/04/01 14:39:24;;;;;;;2.63;1.42;;;29.20;28.10;;;;;;5011494;28;20076;-76
2021/04/01 14:41:59;;;;;;;9.60;3.22;;;29.20;28.10;;;;;;5073927;28;20098;-76
2021/04/01 14:44:26;;;;;;;3.85;1.75;;;29.20;28.20;;;;;;5036314;28;20032;-76
2021/04/01 14:46:52;;;;;;;2.03;1.30;;;29.10;28.20;;;;;;5051158;28;20111;-77
2021/04/01 14:49:27;;;;;;;3.67;1.40;;;29.10;28.30;;;;;;5052634;28;20445;-77